Greensboro Bend, Vermont
Current Conditions -  °F | °C
As of 7:55 AM on Saturday 25 Oct 2014 (Local Time) from KCDA Reporting Station
Moderate Fog Moderate Fog  
Wind Chill: 31°   Ceiling: Unl
Heat Index: 31°   Visibility: 0mi
Dew Point: 29°   Wind: 0mph
Humidity: 94%   Direction: NA
Pressure: 29.77"   Gusts: NA
Location:  44.55°N, 72.27°W
Report Text: KCDA 251155Z AUTO 00000KT M1/4SM FZFG VV000 M01/M02 A2977 RMK AO2 T10071016 10027 21009
Loading
Personal Weather Stations






























Interactive Weather Map
Tropical Storm Tracking
New forecast layout! Learn more

10-Day Weather Forecast

Advertisements
Track Severe Weather on mobile